Time;durP1;ratioP1;P1;durP2;ratioP2;P2;SDS_P1;SDS_P2;PMS_P1;PMS_P2;Temp;Humidity;BMP_temperature;BMP_pressure;BME280_temperature;BME280_humidity;BME280_pressure;Samples;Min_cycle;Max_cycle;Signal;HPM_P1;HPM_P2
2023/11/22 00:01:04;;;;;;;4.50;0.95;;;6.30;99.90;;;;;;5030417;28;20025;-69
2023/11/22 00:03:30;;;;;;;1.30;1.00;;;6.20;99.90;;;;;;5013732;28;20044;-69
2023/11/22 00:05:55;;;;;;;0.70;0.60;;;6.20;99.90;;;;;;5030744;28;20033;-69
2023/11/22 00:08:21;;;;;;;2.08;1.13;;;6.20;99.90;;;;;;5031346;28;20044;-69
2023/11/22 00:10:47;;;;;;;2.50;1.20;;;6.10;99.90;;;;;;5012875;28;20053;-69
2023/11/22 00:13:13;;;;;;;2.15;1.30;;;6.00;99.90;;;;;;5031142;28;20029;-69
2023/11/22 00:15:38;;;;;;;1.70;1.17;;;6.00;99.90;;;;;;5030513;28;20493;-69
2023/11/22 00:18:04;;;;;;;1.13;0.88;;;5.80;99.90;;;;;;5012802;28;20049;-69
2023/11/22 00:20:30;;;;;;;1.73;1.23;;;5.80;99.90;;;;;;5012625;28;20528;-69
2023/11/22 00:22:56;;;;;;;3.75;1.85;;;5.80;99.90;;;;;;5029788;28;20557;-69
2023/11/22 00:25:22;;;;;;;4.22;2.38;;;5.70;99.90;;;;;;5012594;28;20017;-69
2023/11/22 00:27:48;;;;;;;2.58;1.40;;;5.70;99.90;;;;;;5031099;28;20547;-69
2023/11/22 00:30:14;;;;;;;1.08;0.82;;;5.60;99.90;;;;;;5012553;28;20538;-69
2023/11/22 00:32:40;;;;;;;1.80;1.00;;;5.50;99.90;;;;;;5031024;28;20071;-70
2023/11/22 00:35:08;;;;;;;2.08;0.95;;;5.50;99.90;;;;;;5012590;28;20037;-70
2023/11/22 00:37:37;;;;;;;3.10;1.55;;;5.50;99.90;;;;;;5030921;28;20038;-70
2023/11/22 00:40:10;;;;;;;3.75;1.48;;;5.40;99.90;;;;;;5012891;28;20040;-70
2023/11/22 00:42:42;;;;;;;4.18;1.77;;;5.40;99.90;;;;;;5031350;28;20485;-69
2023/11/22 00:45:09;;;;;;;3.47;1.83;;;5.40;99.90;;;;;;5029980;28;20091;-69
2023/11/22 00:47:36;;;;;;;3.00;1.50;;;5.30;99.90;;;;;;5029279;28;20033;-69
2023/11/22 00:50:04;;;;;;;2.35;1.17;;;5.30;99.90;;;;;;5012133;28;20056;-69
2023/11/22 00:52:31;;;;;;;1.70;0.80;;;5.30;99.90;;;;;;5030824;28;20025;-69
2023/11/22 00:54:59;;;;;;;1.45;1.02;;;5.20;99.90;;;;;;5012903;28;20026;-69
2023/11/22 00:57:26;;;;;;;1.48;1.20;;;5.20;99.90;;;;;;5021707;28;20030;-69
2023/11/22 00:59:53;;;;;;;1.67;1.10;;;5.20;99.90;;;;;;5023826;28;20029;-69
2023/11/22 01:02:20;;;;;;;2.08;0.85;;;5.10;99.90;;;;;;5017467;28;20025;-69
2023/11/22 01:04:46;;;;;;;3.95;1.38;;;5.10;99.90;;;;;;5034470;28;20029;-69
2023/11/22 01:07:11;;;;;;;1.58;1.35;;;5.20;99.90;;;;;;5016669;28;20041;-69
2023/11/22 01:09:37;;;;;;;4.63;1.15;;;5.10;99.90;;;;;;5017231;28;20037;-69
2023/11/22 01:12:04;;;;;;;3.40;1.40;;;5.10;99.90;;;;;;5034339;28;20041;-69
2023/11/22 01:14:29;;;;;;;1.92;0.60;;;5.10;99.90;;;;;;5035313;28;20039;-69
2023/11/22 01:16:55;;;;;;;1.17;0.98;;;5.10;99.90;;;;;;5016693;28;20048;-69
2023/11/22 01:19:21;;;;;;;4.15;1.02;;;5.00;99.90;;;;;;5034640;28;20028;-69
2023/11/22 01:21:47;;;;;;;2.33;1.15;;;5.00;99.90;;;;;;5016413;28;20519;-69
2023/11/22 01:24:13;;;;;;;1.45;0.75;;;4.90;99.90;;;;;;5016895;28;20034;-69
2023/11/22 01:26:39;;;;;;;2.53;1.20;;;4.80;99.90;;;;;;5016024;28;20043;-69
2023/11/22 01:29:05;;;;;;;5.80;2.15;;;4.80;99.90;;;;;;5016479;28;20068;-69
2023/11/22 01:31:32;;;;;;;1.02;0.70;;;4.80;99.90;;;;;;5015817;28;20051;-69
2023/11/22 01:34:03;;;;;;;7.95;0.85;;;4.70;99.90;;;;;;5016936;28;20521;-69
2023/11/22 01:36:29;;;;;;;1.80;0.93;;;4.70;99.90;;;;;;5016345;28;20037;-69
2023/11/22 01:38:55;;;;;;;1.60;0.98;;;4.70;99.90;;;;;;5033988;28;20040;-69
2023/11/22 01:41:21;;;;;;;2.20;1.27;;;4.70;99.90;;;;;;5033404;28;20037;-69
2023/11/22 01:43:47;;;;;;;1.67;1.00;;;4.60;99.90;;;;;;5016609;28;20106;-69
2023/11/22 01:46:25;;;;;;;2.90;1.35;;;4.60;99.90;;;;;;5015799;28;20520;-69
2023/11/22 01:48:53;;;;;;;4.10;1.55;;;4.60;99.90;;;;;;5016277;28;20034;-69
2023/11/22 01:51:23;;;;;;;0.95;0.80;;;4.60;99.90;;;;;;5015924;28;20040;-69
2023/11/22 01:53:58;;;;;;;1.63;0.90;;;4.50;99.90;;;;;;5016888;28;20033;-70
2023/11/22 01:56:26;;;;;;;2.38;1.73;;;4.50;99.90;;;;;;5016238;28;20612;-70
2023/11/22 01:58:54;;;;;;;2.15;1.20;;;4.40;99.90;;;;;;5015970;28;20021;-70
2023/11/22 02:01:21;;;;;;;3.28;1.23;;;4.40;99.90;;;;;;5016200;28;20037;-70
2023/11/22 02:03:52;;;;;;;2.17;1.38;;;4.30;99.90;;;;;;5016749;28;20025;-70
2023/11/22 02:06:18;;;;;;;1.33;1.02;;;4.30;99.90;;;;;;5015649;28;20033;-69
2023/11/22 02:08:44;;;;;;;2.50;1.20;;;4.20;99.90;;;;;;5031701;28;20041;-69
2023/11/22 02:11:10;;;;;;;1.42;0.60;;;4.20;99.90;;;;;;5019975;28;20039;-69
2023/11/22 02:13:36;;;;;;;4.95;1.42;;;4.10;99.90;;;;;;5033311;28;20025;-69
2023/11/22 02:16:03;;;;;;;3.28;1.25;;;4.10;99.90;;;;;;5028390;28;20060;-70
2023/11/22 02:18:29;;;;;;;2.15;1.38;;;4.10;99.90;;;;;;5018713;28;20063;-70
2023/11/22 02:20:56;;;;;;;2.88;1.08;;;4.00;99.90;;;;;;5012322;28;20117;-70
2023/11/22 02:23:22;;;;;;;4.40;1.35;;;4.00;99.90;;;;;;5009201;28;20021;-70
2023/11/22 02:25:48;;;;;;;2.05;1.15;;;3.90;99.90;;;;;;5018477;28;20049;-70
2023/11/22 02:28:14;;;;;;;2.50;1.08;;;4.00;99.90;;;;;;5032862;28;20021;-70
2023/11/22 02:30:40;;;;;;;1.27;0.55;;;3.90;99.90;;;;;;5023404;28;20044;-70
2023/11/22 02:33:07;;;;;;;8.80;0.57;;;3.90;99.90;;;;;;5033011;28;20030;-69
2023/11/22 02:35:33;;;;;;;3.95;0.95;;;3.80;99.90;;;;;;5024058;28;20132;-70
2023/11/22 02:38:00;;;;;;;0.90;0.82;;;3.80;99.90;;;;;;5015323;28;20505;-70
2023/11/22 02:40:27;;;;;;;0.73;0.73;;;3.80;99.90;;;;;;5010182;28;20414;-70
2023/11/22 02:42:54;;;;;;;3.83;0.63;;;3.80;99.90;;;;;;5015334;28;20026;-70
2023/11/22 02:45:28;;;;;;;1.10;0.77;;;3.80;99.90;;;;;;5023609;28;20093;-70
2023/11/22 02:47:54;;;;;;;2.28;0.85;;;3.70;99.90;;;;;;5014908;28;20030;-70
2023/11/22 02:50:21;;;;;;;4.72;1.50;;;3.70;99.90;;;;;;5032061;28;20034;-70
2023/11/22 02:52:47;;;;;;;1.02;0.90;;;3.70;99.90;;;;;;5011613;28;20475;-70
2023/11/22 02:55:12;;;;;;;0.45;0.35;;;3.60;99.90;;;;;;5031459;28;20030;-70
2023/11/22 02:57:42;;;;;;;1.13;0.70;;;3.60;99.90;;;;;;5032148;28;20134;-70
2023/11/22 03:00:13;;;;;;;2.15;1.20;;;3.60;99.90;;;;;;5014863;28;20059;-70
2023/11/22 03:02:40;;;;;;;1.90;0.98;;;3.60;99.90;;;;;;5011665;28;20067;-70
2023/11/22 03:05:08;;;;;;;3.35;1.67;;;3.50;99.90;;;;;;5012753;28;20037;-70
2023/11/22 03:07:33;;;;;;;0.73;0.50;;;3.50;99.90;;;;;;5032499;28;20037;-70
2023/11/22 03:10:00;;;;;;;0.47;0.47;;;3.50;99.90;;;;;;5031356;28;20440;-70
2023/11/22 03:12:26;;;;;;;1.45;0.75;;;3.60;99.90;;;;;;5018192;28;20022;-70
2023/11/22 03:14:58;;;;;;;1.25;0.82;;;3.50;99.90;;;;;;5014889;28;20025;-70
2023/11/22 03:17:24;;;;;;;1.00;0.60;;;3.50;99.90;;;;;;5032359;28;20113;-70
2023/11/22 03:19:51;;;;;;;2.75;1.45;;;3.50;99.90;;;;;;5013435;28;20040;-70
2023/11/22 03:22:17;;;;;;;1.65;0.95;;;3.50;99.90;;;;;;5010912;28;20036;-70
2023/11/22 03:24:43;;;;;;;1.48;0.57;;;3.40;99.90;;;;;;5010289;28;20033;-70
2023/11/22 03:27:10;;;;;;;2.75;1.23;;;3.40;99.90;;;;;;5030224;28;20083;-70
2023/11/22 03:29:37;;;;;;;2.95;1.55;;;3.30;99.90;;;;;;5030965;28;20035;-70
2023/11/22 03:32:04;;;;;;;1.63;1.02;;;3.30;99.90;;;;;;5011668;28;20034;-70
2023/11/22 03:34:29;;;;;;;1.00;0.63;;;3.20;99.90;;;;;;5014311;28;20029;-70
2023/11/22 03:36:55;;;;;;;2.00;0.95;;;3.20;99.90;;;;;;5013521;28;20034;-70
2023/11/22 03:39:22;;;;;;;3.63;1.42;;;3.20;99.90;;;;;;5018237;28;20034;-69
2023/11/22 03:41:48;;;;;;;2.63;1.30;;;3.10;99.90;;;;;;5028143;28;20041;-69
2023/11/22 03:44:14;;;;;;;1.60;1.08;;;3.10;99.90;;;;;;5022381;28;20021;-70
2023/11/22 03:46:40;;;;;;;3.53;1.30;;;3.10;99.90;;;;;;5014495;28;20091;-70
2023/11/22 03:49:09;;;;;;;1.85;0.95;;;3.10;99.90;;;;;;5029604;28;20114;-70
2023/11/22 03:51:36;;;;;;;2.42;1.42;;;3.00;99.90;;;;;;5014675;28;20069;-69
2023/11/22 03:54:02;;;;;;;2.67;1.25;;;3.00;99.90;;;;;;5011994;28;20112;-70
2023/11/22 03:56:29;;;;;;;2.42;1.23;;;3.00;99.90;;;;;;5000203;28;20049;-70
2023/11/22 03:58:55;;;;;;;2.40;1.20;;;2.90;99.90;;;;;;5010266;28;20068;-70
2023/11/22 04:01:21;;;;;;;1.20;0.90;;;2.90;99.90;;;;;;5016991;28;20025;-70
2023/11/22 04:03:48;;;;;;;1.88;1.60;;;2.90;99.90;;;;;;5027561;28;20151;-70
2023/11/22 04:06:16;;;;;;;2.88;1.80;;;2.80;99.90;;;;;;4998006;28;20079;-70
2023/11/22 04:08:44;;;;;;;2.88;1.40;;;2.80;99.90;;;;;;5014834;28;20041;-70
2023/11/22 04:11:10;;;;;;;1.60;1.08;;;2.80;99.90;;;;;;5011573;28;20037;-70
2023/11/22 04:13:36;;;;;;;2.22;1.42;;;2.80;99.90;;;;;;5015806;28;20026;-70
2023/11/22 04:16:02;;;;;;;1.90;0.95;;;2.80;99.90;;;;;;5032761;28;20037;-70
2023/11/22 04:18:28;;;;;;;1.30;0.95;;;2.70;99.90;;;;;;5030864;28;20033;-70
2023/11/22 04:20:55;;;;;;;1.42;1.33;;;2.70;99.90;;;;;;5030058;28;20046;-70
2023/11/22 04:23:21;;;;;;;4.40;1.45;;;2.70;99.90;;;;;;5031278;28;20373;-70
2023/11/22 04:25:49;;;;;;;1.90;1.20;;;2.70;99.90;;;;;;5030251;28;20036;-69
2023/11/22 04:28:15;;;;;;;2.92;1.90;;;2.60;99.90;;;;;;5013054;28;20017;-69
2023/11/22 04:30:41;;;;;;;3.92;1.58;;;2.60;99.90;;;;;;5015232;28;20038;-69
2023/11/22 04:33:07;;;;;;;2.45;1.50;;;2.60;99.90;;;;;;4995147;28;20034;-69
2023/11/22 04:35:36;;;;;;;5.05;1.00;;;2.50;99.90;;;;;;5016148;28;20435;-70
2023/11/22 04:38:03;;;;;;;1.95;1.17;;;2.50;99.90;;;;;;5028826;28;20045;-69
2023/11/22 04:40:30;;;;;;;2.60;0.80;;;2.50;99.90;;;;;;5016502;28;20101;-70
2023/11/22 04:42:56;;;;;;;2.70;1.85;;;2.60;99.90;;;;;;5010417;28;20028;-70
2023/11/22 04:45:21;;;;;;;1.42;1.15;;;2.50;99.90;;;;;;5017900;28;20363;-70
2023/11/22 04:47:47;;;;;;;1.30;1.20;;;2.50;99.90;;;;;;5026325;28;20398;-69
2023/11/22 04:50:13;;;;;;;3.58;1.70;;;2.50;99.90;;;;;;5013393;28;20029;-69
2023/11/22 04:52:39;;;;;;;4.82;1.83;;;2.50;99.90;;;;;;5030844;28;20398;-69
2023/11/22 04:55:05;;;;;;;1.77;1.23;;;2.50;99.90;;;;;;5013159;28;20032;-69
2023/11/22 04:57:31;;;;;;;2.70;1.05;;;2.40;99.90;;;;;;5016316;28;20026;-69
2023/11/22 04:59:57;;;;;;;1.48;1.30;;;2.50;99.90;;;;;;5026812;28;20022;-69
2023/11/22 05:02:26;;;;;;;0.95;0.90;;;2.40;99.90;;;;;;5030748;28;20025;-69
2023/11/22 05:04:53;;;;;;;0.93;0.93;;;2.40;99.90;;;;;;5029767;28;20116;-69
2023/11/22 05:07:19;;;;;;;5.28;1.15;;;2.40;99.90;;;;;;5018003;28;20479;-72
2023/11/22 05:09:44;;;;;;;1.23;1.10;;;2.40;99.90;;;;;;5011029;28;20033;-72
2023/11/22 05:12:11;;;;;;;1.95;1.67;;;2.30;99.90;;;;;;5029488;28;20136;-72
2023/11/22 05:14:37;;;;;;;2.78;1.67;;;2.30;99.90;;;;;;5022045;28;20096;-73
2023/11/22 05:17:04;;;;;;;1.67;1.45;;;2.20;99.90;;;;;;5011512;28;20040;-72
2023/11/22 05:19:31;;;;;;;1.88;0.70;;;2.20;99.90;;;;;;5015527;28;20030;-72
2023/11/22 05:21:57;;;;;;;1.50;1.08;;;2.20;99.90;;;;;;5010275;28;20044;-72
2023/11/22 05:24:23;;;;;;;1.05;0.88;;;2.10;99.90;;;;;;5016531;28;20096;-72
2023/11/22 05:26:49;;;;;;;4.05;1.88;;;2.20;99.90;;;;;;5026737;28;20117;-72
2023/11/22 05:29:15;;;;;;;3.45;1.58;;;2.20;99.90;;;;;;5030436;28;20025;-72
2023/11/22 05:31:41;;;;;;;2.55;1.60;;;2.30;99.90;;;;;;5012581;28;20468;-72
2023/11/22 05:34:06;;;;;;;1.55;1.38;;;2.10;99.90;;;;;;5028999;28;20105;-71
2023/11/22 05:36:32;;;;;;;7.22;1.55;;;2.10;99.90;;;;;;5029512;28;20047;-71
2023/11/22 05:39:03;;;;;;;1.67;0.90;;;2.10;99.90;;;;;;5029093;28;20109;-71
2023/11/22 05:41:29;;;;;;;2.50;1.35;;;2.10;99.90;;;;;;5011257;28;20041;-72
2023/11/22 05:43:55;;;;;;;3.45;1.88;;;2.00;99.90;;;;;;5029343;28;20553;-72
2023/11/22 05:46:24;;;;;;;3.90;1.13;;;2.00;99.90;;;;;;5018815;28;20036;-72
2023/11/22 05:48:51;;;;;;;3.35;2.00;;;2.00;99.90;;;;;;5012844;28;20036;-72
2023/11/22 05:51:18;;;;;;;4.28;1.05;;;2.00;99.90;;;;;;5016471;28;20517;-72
2023/11/22 05:53:44;;;;;;;2.83;1.35;;;1.90;99.90;;;;;;5023021;28;20060;-71
2023/11/22 05:56:09;;;;;;;4.50;1.20;;;1.90;99.90;;;;;;5033017;28;20502;-70
2023/11/22 05:58:38;;;;;;;1.33;0.98;;;1.90;99.90;;;;;;5035500;28;20057;-69
2023/11/22 06:01:05;;;;;;;3.92;1.75;;;1.90;99.90;;;;;;5032621;28;20064;-72
2023/11/22 06:03:33;;;;;;;2.13;1.15;;;1.90;99.90;;;;;;5018387;28;20026;-72
2023/11/22 06:05:59;;;;;;;1.05;0.95;;;2.00;99.90;;;;;;5011972;28;20030;-72
2023/11/22 06:08:25;;;;;;;3.45;1.60;;;2.00;99.90;;;;;;5024787;28;20044;-73
2023/11/22 06:10:52;;;;;;;2.10;1.40;;;1.90;99.90;;;;;;5019470;28;20041;-72
2023/11/22 06:13:19;;;;;;;3.90;1.67;;;1.90;99.90;;;;;;5011707;28;20026;-72
2023/11/22 06:15:45;;;;;;;1.95;1.00;;;1.90;99.90;;;;;;5018253;28;20501;-71
2023/11/22 06:18:13;;;;;;;3.20;1.85;;;1.80;99.90;;;;;;5012514;28;20061;-72
2023/11/22 06:20:40;;;;;;;3.25;1.92;;;1.80;99.90;;;;;;5011643;28;20536;-72
2023/11/22 06:23:06;;;;;;;2.47;1.92;;;1.80;99.90;;;;;;5025359;28;20070;-71
2023/11/22 06:25:32;;;;;;;1.55;1.10;;;1.80;99.90;;;;;;5022008;28;20034;-70
2023/11/22 06:27:58;;;;;;;3.08;1.88;;;1.80;99.90;;;;;;5030003;28;20029;-70
2023/11/22 06:30:24;;;;;;;3.00;1.33;;;1.80;99.90;;;;;;5021770;28;20029;-70
2023/11/22 06:32:51;;;;;;;3.70;1.92;;;1.70;99.90;;;;;;5041636;28;20079;-71
2023/11/22 06:35:17;;;;;;;4.18;2.45;;;1.70;99.90;;;;;;5028259;28;20537;-71
2023/11/22 06:37:44;;;;;;;5.28;1.63;;;1.70;99.90;;;;;;5014649;28;20393;-71
2023/11/22 06:40:14;;;;;;;7.22;2.70;;;1.70;99.90;;;;;;5023660;28;20053;-71
2023/11/22 06:42:44;;;;;;;2.08;1.60;;;1.70;99.90;;;;;;5016081;28;20428;-71
2023/11/22 06:45:10;;;;;;;1.85;1.35;;;1.80;99.90;;;;;;5027361;28;21023;-71
2023/11/22 06:47:45;;;;;;;5.35;2.45;;;1.80;99.90;;;;;;5017346;28;20111;-71
2023/11/22 06:50:11;;;;;;;2.25;1.33;;;1.70;99.90;;;;;;5029309;28;20029;-71
2023/11/22 06:52:38;;;;;;;6.57;1.23;;;1.70;99.90;;;;;;5032410;28;20214;-71
2023/11/22 06:55:09;;;;;;;2.88;1.83;;;1.60;99.90;;;;;;5030848;28;20041;-71
2023/11/22 06:57:35;;;;;;;1.70;1.20;;;1.60;99.90;;;;;;5030159;28;20022;-69
2023/11/22 07:00:05;;;;;;;1.98;1.30;;;1.60;99.90;;;;;;5030659;28;20025;-70
2023/11/22 07:02:35;;;;;;;1.08;0.82;;;1.50;99.90;;;;;;5022680;28;20041;-70
2023/11/22 07:05:02;;;;;;;4.15;2.80;;;1.60;99.90;;;;;;5031259;28;20033;-70
2023/11/22 07:07:28;;;;;;;2.45;1.67;;;1.50;99.90;;;;;;5032624;28;20679;-70
2023/11/22 07:09:54;;;;;;;3.00;1.27;;;1.60;99.90;;;;;;5030327;28;20037;-69
2023/11/22 07:12:20;;;;;;;3.15;2.80;;;1.60;99.90;;;;;;5024951;28;20041;-69
2023/11/22 07:14:45;;;;;;;6.03;1.13;;;1.60;99.90;;;;;;5029935;28;20033;-72
2023/11/22 07:17:11;;;;;;;16.50;2.17;;;1.60;99.90;;;;;;5029006;28;20103;-70
2023/11/22 07:19:37;;;;;;;3.47;2.10;;;1.60;99.90;;;;;;5037104;28;20364;-72
2023/11/22 07:22:15;;;;;;;3.35;1.25;;;1.60;99.90;;;;;;5028866;28;20037;-72
2023/11/22 07:24:45;;;;;;;3.60;2.15;;;1.60;99.90;;;;;;5032408;28;20037;-74
2023/11/22 07:27:14;;;;;;;2.20;1.48;;;1.70;99.90;;;;;;5020870;28;20104;-75
2023/11/22 07:29:41;;;;;;;1.33;0.98;;;1.70;99.90;;;;;;5013894;28;20117;-75
2023/11/22 07:32:11;;;;;;;3.30;2.15;;;1.70;99.90;;;;;;5012306;28;20033;-77
2023/11/22 07:34:39;;;;;;;1.98;1.38;;;1.70;99.90;;;;;;5014865;28;20029;-77
2023/11/22 07:37:09;;;;;;;2.00;1.35;;;1.70;99.90;;;;;;5013835;28;20029;-77
2023/11/22 07:39:39;;;;;;;2.63;1.35;;;1.70;99.90;;;;;;5030455;28;20112;-71
2023/11/22 07:42:08;;;;;;;4.97;1.10;;;1.70;99.90;;;;;;5031212;28;20405;-74
2023/11/22 07:44:37;;;;;;;3.97;1.63;;;1.80;99.90;;;;;;5015530;28;20091;-75
2023/11/22 07:47:07;;;;;;;6.80;2.05;;;1.80;99.90;;;;;;5019530;28;20091;-74
2023/11/22 07:49:36;;;;;;;4.45;1.90;;;1.80;99.90;;;;;;5016404;28;20064;-75
2023/11/22 07:52:03;;;;;;;2.63;1.42;;;1.80;99.90;;;;;;5030499;28;20030;-74
2023/11/22 07:54:30;;;;;;;1.90;0.80;;;1.80;99.90;;;;;;5028331;28;20056;-70
2023/11/22 07:56:56;;;;;;;2.17;1.90;;;1.90;99.90;;;;;;5031482;28;20025;-70
2023/11/22 07:59:22;;;;;;;2.33;1.65;;;2.00;99.90;;;;;;5031686;28;20029;-69
2023/11/22 08:01:48;;;;;;;2.90;1.52;;;2.00;99.90;;;;;;5025246;28;20071;-70
2023/11/22 08:04:16;;;;;;;1.92;1.27;;;2.00;99.90;;;;;;5022008;28;20099;-71
2023/11/22 08:06:42;;;;;;;3.33;1.55;;;2.10;99.90;;;;;;5030218;28;20452;-69
2023/11/22 08:09:09;;;;;;;0.98;0.70;;;2.10;99.90;;;;;;5012847;28;20033;-71
2023/11/22 08:11:36;;;;;;;1.88;0.95;;;2.20;99.90;;;;;;5031549;28;20033;-71
2023/11/22 08:14:02;;;;;;;2.00;1.08;;;2.30;99.90;;;;;;5029566;28;20026;-73
2023/11/22 08:16:28;;;;;;;1.77;0.77;;;2.30;99.90;;;;;;5030836;28;20390;-73
2023/11/22 08:18:56;;;;;;;3.75;1.45;;;2.40;99.90;;;;;;5035423;28;20026;-74
2023/11/22 08:21:23;;;;;;;3.75;1.65;;;2.50;99.90;;;;;;5021817;28;20428;-72
2023/11/22 08:23:49;;;;;;;4.00;1.33;;;2.60;99.90;;;;;;5029298;28;20029;-72
2023/11/22 08:26:15;;;;;;;5.15;1.80;;;2.70;99.90;;;;;;5029151;28;20378;-72
2023/11/22 08:28:41;;;;;;;1.10;0.85;;;2.80;99.90;;;;;;5029198;28;20120;-72
2023/11/22 08:31:10;;;;;;;1.52;1.00;;;2.90;99.90;;;;;;5026162;28;20030;-73
2023/11/22 08:33:39;;;;;;;7.15;1.10;;;3.10;99.90;;;;;;5025211;28;20486;-73
2023/11/22 08:36:09;;;;;;;3.55;0.80;;;3.20;99.90;;;;;;5012298;28;20037;-73
2023/11/22 08:38:41;;;;;;;1.13;0.82;;;3.20;99.90;;;;;;5031170;28;20052;-73
2023/11/22 08:41:08;;;;;;;1.52;0.75;;;3.30;99.90;;;;;;5013203;28;20091;-73
2023/11/22 08:43:34;;;;;;;2.42;1.23;;;3.50;99.90;;;;;;5029672;28;20087;-73
2023/11/22 08:46:03;;;;;;;1.52;0.80;;;3.50;99.90;;;;;;5019352;28;20041;-73
2023/11/22 08:48:30;;;;;;;2.50;1.48;;;3.50;99.90;;;;;;5026590;28;20401;-72
2023/11/22 08:50:57;;;;;;;0.95;0.70;;;3.50;99.90;;;;;;5029797;28;20038;-72
2023/11/22 08:53:23;;;;;;;2.67;1.40;;;3.40;99.90;;;;;;5013133;28;20363;-72
2023/11/22 08:55:48;;;;;;;2.30;1.42;;;3.40;99.90;;;;;;5020688;28;20040;-72
2023/11/22 08:58:14;;;;;;;3.78;1.23;;;3.30;99.90;;;;;;5030909;28;20032;-72
2023/11/22 09:00:45;;;;;;;2.08;1.40;;;3.30;99.90;;;;;;5029579;28;20038;-72
2023/11/22 09:03:12;;;;;;;2.80;1.30;;;3.40;99.90;;;;;;5029470;28;20055;-72
2023/11/22 09:05:42;;;;;;;2.30;1.20;;;3.40;99.90;;;;;;5015204;28;20096;-72
2023/11/22 09:08:13;;;;;;;2.17;1.13;;;3.50;99.90;;;;;;5029409;28;20055;-72
2023/11/22 09:10:39;;;;;;;2.67;1.03;;;3.60;99.90;;;;;;5011805;28;20141;-72
2023/11/22 09:13:05;;;;;;;5.68;3.45;;;3.60;99.90;;;;;;5021561;28;20362;-72
2023/11/22 09:15:33;;;;;;;1.27;0.95;;;3.70;99.90;;;;;;5027117;28;20040;-72
2023/11/22 09:18:00;;;;;;;5.50;1.25;;;3.80;99.90;;;;;;5031395;28;20035;-71
2023/11/22 09:20:25;;;;;;;4.15;0.98;;;3.80;99.90;;;;;;5015552;28;20025;-72
2023/11/22 09:22:54;;;;;;;2.03;1.48;;;3.90;99.90;;;;;;5025097;28;20099;-71
2023/11/22 09:25:25;;;;;;;1.25;0.90;;;4.00;99.90;;;;;;5030815;28;20048;-72
2023/11/22 09:27:55;;;;;;;2.73;1.70;;;4.00;99.90;;;;;;5025920;28;20665;-72
2023/11/22 09:30:35;;;;;;;1.13;0.65;;;4.30;99.90;;;;;;5026722;28;20420;-72
2023/11/22 09:33:07;;;;;;;2.70;1.50;;;4.50;99.90;;;;;;5034704;28;20037;-73
2023/11/22 09:35:33;;;;;;;1.45;0.77;;;4.80;99.90;;;;;;5033396;28;20112;-72
2023/11/22 09:38:11;;;;;;;4.22;1.15;;;4.90;99.90;;;;;;5049343;28;20029;-72
2023/11/22 09:40:46;;;;;;;1.13;0.43;;;5.20;99.90;;;;;;5034489;28;20128;-73
2023/11/22 09:43:17;;;;;;;2.58;0.93;;;5.50;99.90;;;;;;5033382;28;20022;-73
2023/11/22 09:45:44;;;;;;;2.08;1.00;;;6.70;99.90;;;;;;5027932;28;20559;-73
2023/11/22 09:48:19;;;;;;;1.48;0.75;;;8.90;96.90;;;;;;5046564;28;20033;-74
2023/11/22 09:51:09;;;;;;;3.05;1.45;;;9.70;86.90;;;;;;5024829;28;20042;-72
2023/11/22 09:54:00;;;;;;;2.20;1.42;;;11.60;82.30;;;;;;5028343;28;20029;-72
2023/11/22 09:56:28;;;;;;;3.58;2.00;;;12.80;69.80;;;;;;5027428;28;20484;-73
2023/11/22 09:58:57;;;;;;;2.40;1.20;;;13.20;68.60;;;;;;5018640;28;20104;-72
2023/11/22 10:01:24;;;;;;;6.03;1.73;;;13.20;66.40;;;;;;5041397;28;20037;-72
2023/11/22 10:03:50;;;;;;;2.55;1.38;;;15.30;64.20;;;;;;5031886;28;20044;-72
2023/11/22 10:06:17;;;;;;;1.77;0.95;;;15.10;61.80;;;;;;5031710;28;20106;-73
2023/11/22 10:08:46;;;;;;;2.35;1.50;;;16.20;60.90;;;;;;5032153;28;20021;-73
2023/11/22 10:11:22;;;;;;;3.78;1.35;;;17.60;57.00;;;;;;5015572;28;20030;-73
2023/11/22 10:13:49;;;;;;;2.75;1.10;;;17.40;53.40;;;;;;5028897;28;20037;-73
2023/11/22 10:16:18;;;;;;;2.47;1.38;;;15.00;57.50;;;;;;5015788;28;20112;-73
2023/11/22 10:18:46;;;;;;;5.72;1.88;;;16.80;56.10;;;;;;5032081;28;20026;-73
2023/11/22 10:21:39;;;;;;;2.72;1.20;;;17.40;54.30;;;;;;5031155;28;20065;-73
2023/11/22 10:24:09;;;;;;;3.63;1.30;;;15.30;53.50;;;;;;5026963;28;20517;-73
2023/11/22 10:26:35;;;;;;;3.00;1.40;;;13.30;59.90;;;;;;5033689;28;20414;-72
2023/11/22 10:29:02;;;;;;;2.47;1.40;;;12.90;59.20;;;;;;5024049;28;20036;-73
2023/11/22 10:31:28;;;;;;;2.55;1.25;;;13.00;62.50;;;;;;5030756;28;20033;-73
2023/11/22 10:33:57;;;;;;;3.08;1.40;;;15.50;59.00;;;;;;5031619;28;20481;-73
2023/11/22 10:36:23;;;;;;;5.05;2.03;;;16.20;55.90;;;;;;5013857;28;20038;-73
2023/11/22 10:38:50;;;;;;;3.33;1.00;;;16.60;54.70;;;;;;5029936;28;20029;-73
2023/11/22 10:41:17;;;;;;;2.67;1.25;;;16.30;54.00;;;;;;5014886;28;20025;-73
2023/11/22 10:43:44;;;;;;;2.35;1.13;;;13.20;56.00;;;;;;5031822;28;20045;-73
2023/11/22 10:46:13;;;;;;;3.95;1.58;;;15.00;56.30;;;;;;5014037;28;20057;-72
2023/11/22 10:48:39;;;;;;;3.92;1.50;;;16.40;55.20;;;;;;5031734;28;20026;-73
2023/11/22 10:51:06;;;;;;;3.53;1.98;;;16.80;53.30;;;;;;5021386;28;20034;-69
2023/11/22 10:53:38;;;;;;;6.38;1.90;;;16.40;54.40;;;;;;5031897;28;20108;-69
2023/11/22 10:56:17;;;;;;;3.70;1.23;;;15.50;53.60;;;;;;5030895;28;20500;-70
2023/11/22 10:58:57;;;;;;;11.48;1.67;;;14.10;56.20;;;;;;5032038;28;20079;-70
2023/11/22 11:01:26;;;;;;;2.05;1.00;;;12.20;60.70;;;;;;5031616;28;20029;-70
2023/11/22 11:04:10;;;;;;;2.53;1.25;;;12.90;59.60;;;;;;5019483;28;20539;-69
2023/11/22 11:06:36;;;;;;;3.45;1.48;;;11.30;62.90;;;;;;5017064;28;20034;-72
2023/11/22 11:09:10;;;;;;;2.95;1.23;;;12.80;62.60;;;;;;5012185;28;20042;-73
2023/11/22 11:11:38;;;;;;;3.25;1.27;;;12.50;61.40;;;;;;5050143;22;20045;-73
2023/11/22 11:14:07;;;;;;;2.83;1.20;;;9.60;66.50;;;;;;5032579;28;20441;-74
2023/11/22 11:16:37;;;;;;;2.38;1.45;;;9.10;71.30;;;;;;5024255;28;20067;-73
2023/11/22 11:19:04;;;;;;;3.13;1.63;;;8.80;75.00;;;;;;5010342;28;20048;-74
2023/11/22 11:21:32;;;;;;;3.60;1.50;;;8.60;78.30;;;;;;5007504;28;20041;-73
2023/11/22 11:24:02;;;;;;;1.75;1.15;;;7.80;82.90;;;;;;4994964;28;20125;-73
2023/11/22 11:26:31;;;;;;;4.55;1.83;;;7.40;83.90;;;;;;5011175;28;20040;-73
2023/11/22 11:28:57;;;;;;;1.75;1.15;;;6.90;90.00;;;;;;5002700;28;20414;-72
2023/11/22 11:31:23;;;;;;;2.83;1.40;;;7.10;91.80;;;;;;5000842;28;20084;-73
2023/11/22 11:33:49;;;;;;;2.20;1.50;;;6.80;92.90;;;;;;5011031;28;20088;-74
2023/11/22 11:36:31;;;;;;;2.85;1.38;;;6.80;93.30;;;;;;5011067;28;20061;-73
2023/11/22 11:39:01;;;;;;;4.85;1.23;;;6.70;94.60;;;;;;5010258;28;20034;-73
2023/11/22 11:41:30;;;;;;;2.13;1.10;;;6.80;95.90;;;;;;5000014;28;20033;-73
2023/11/22 11:43:57;;;;;;;2.35;1.48;;;6.10;98.40;;;;;;5010357;28;20414;-73
2023/11/22 11:46:23;;;;;;;3.08;1.55;;;6.40;98.00;;;;;;4993929;28;20851;-72
2023/11/22 11:48:51;;;;;;;4.47;1.85;;;6.30;97.60;;;;;;5002348;28;20473;-73
2023/11/22 11:51:22;;;;;;;4.10;1.85;;;6.10;98.10;;;;;;5000803;28;20065;-73
2023/11/22 11:53:48;;;;;;;6.20;1.83;;;6.30;98.70;;;;;;5003491;28;20037;-72
2023/11/22 11:56:15;;;;;;;18.23;1.60;;;6.20;97.70;;;;;;5010640;28;20060;-72
2023/11/22 11:58:43;;;;;;;2.38;1.35;;;6.40;97.80;;;;;;5010388;28;20045;-72
2023/11/22 12:01:16;;;;;;;3.38;1.30;;;6.20;97.60;;;;;;4993189;28;20105;-72
2023/11/22 12:03:43;;;;;;;3.15;1.27;;;6.20;98.30;;;;;;5010717;28;20029;-72
2023/11/22 12:06:10;;;;;;;1.98;1.30;;;6.20;98.10;;;;;;5017955;28;20037;-71
2023/11/22 12:08:36;;;;;;;4.60;1.70;;;6.40;98.20;;;;;;4993920;28;20145;-71
2023/11/22 12:11:10;;;;;;;2.45;1.27;;;6.20;98.20;;;;;;4981253;28;20133;-72
2023/11/22 12:13:38;;;;;;;5.03;1.63;;;6.20;98.00;;;;;;5011727;28;20104;-72
2023/11/22 12:16:10;;;;;;;2.30;1.15;;;6.10;98.60;;;;;;5008192;28;20033;-72
2023/11/22 12:18:44;;;;;;;7.13;1.10;;;5.80;99.20;;;;;;5007600;28;20042;-71
2023/11/22 12:21:13;;;;;;;1.40;0.88;;;5.70;99.90;;;;;;4991915;28;20030;-72
2023/11/22 12:23:42;;;;;;;2.33;1.13;;;5.60;99.90;;;;;;4996312;28;20029;-71
2023/11/22 12:26:13;;;;;;;2.13;1.45;;;5.60;99.90;;;;;;5010176;28;20463;-72
2023/11/22 12:28:41;;;;;;;2.28;1.20;;;5.60;99.90;;;;;;5000585;28;20113;-72
2023/11/22 12:31:11;;;;;;;2.10;0.85;;;5.60;99.90;;;;;;4999310;28;20033;-72
2023/11/22 12:33:39;;;;;;;6.00;1.98;;;5.50;99.90;;;;;;5024321;28;20029;-72
2023/11/22 12:36:09;;;;;;;3.00;1.10;;;5.60;99.90;;;;;;4999026;28;20037;-72
2023/11/22 12:38:38;;;;;;;2.58;1.13;;;5.50;99.90;;;;;;5008525;28;20029;-72
2023/11/22 12:41:06;;;;;;;2.25;1.50;;;5.40;99.90;;;;;;5009982;28;20026;-73
2023/11/22 12:43:33;;;;;;;1.52;1.13;;;5.30;99.90;;;;;;5011469;28;20176;-72
2023/11/22 12:46:07;;;;;;;3.00;1.90;;;5.30;99.90;;;;;;5009625;28;20079;-72
2023/11/22 12:48:33;;;;;;;3.10;1.13;;;5.60;99.90;;;;;;5002289;28;20057;-72
2023/11/22 12:51:00;;;;;;;2.42;1.10;;;5.70;99.90;;;;;;4977452;28;20045;-73
2023/11/22 12:53:30;;;;;;;3.03;1.27;;;5.60;99.90;;;;;;5010075;28;20036;-72
2023/11/22 12:55:57;;;;;;;1.25;0.80;;;5.60;99.90;;;;;;5009309;28;20030;-73
2023/11/22 12:58:25;;;;;;;1.92;1.27;;;5.50;99.90;;;;;;4989887;28;20117;-73